Time;durP1;ratioP1;P1;durP2;ratioP2;P2;SDS_P1;SDS_P2;PMS_P1;PMS_P2;Temp;Humidity;BMP_temperature;BMP_pressure;BME280_temperature;BME280_humidity;BME280_pressure;Samples;Min_cycle;Max_cycle;Signal;HPM_P1;HPM_P2
2024/03/16 00:01:38;;;;;;;7.47;3.65;;;9.10;99.50;;;;;;5036363;28;20064;-66
2024/03/16 00:04:04;;;;;;;7.53;3.65;;;9.10;99.50;;;;;;5035968;28;20128;-66
2024/03/16 00:06:29;;;;;;;10.40;4.57;;;9.20;99.60;;;;;;5031480;28;20059;-66
2024/03/16 00:08:55;;;;;;;8.45;4.40;;;9.30;99.60;;;;;;5030862;28;20034;-66
2024/03/16 00:11:20;;;;;;;7.78;3.90;;;9.20;99.50;;;;;;5032303;28;20182;-66
2024/03/16 00:13:45;;;;;;;8.25;3.97;;;9.30;99.60;;;;;;5031302;28;20026;-66
2024/03/16 00:16:11;;;;;;;9.73;4.78;;;9.30;99.50;;;;;;5042789;28;20350;-66
2024/03/16 00:18:37;;;;;;;8.20;4.00;;;9.30;99.50;;;;;;5033990;28;20033;-66
2024/03/16 00:21:03;;;;;;;8.38;4.85;;;9.30;99.50;;;;;;5039881;28;20145;-65
2024/03/16 00:23:28;;;;;;;8.52;4.10;;;9.30;99.40;;;;;;5038571;28;20469;-66
2024/03/16 00:25:55;;;;;;;11.20;5.25;;;9.30;99.40;;;;;;5029985;28;20162;-66
2024/03/16 00:28:21;;;;;;;9.63;4.53;;;9.40;99.40;;;;;;5039496;28;20037;-66
2024/03/16 00:30:46;;;;;;;9.73;5.57;;;9.40;99.40;;;;;;5034893;28;20797;-66
2024/03/16 00:33:12;;;;;;;10.07;5.30;;;9.40;99.40;;;;;;5038001;28;20460;-66
2024/03/16 00:35:38;;;;;;;10.93;5.75;;;9.40;99.40;;;;;;5039731;28;20418;-66
2024/03/16 00:38:03;;;;;;;10.00;5.90;;;9.50;99.40;;;;;;5029015;28;20120;-66
2024/03/16 00:40:29;;;;;;;9.93;5.47;;;9.40;99.30;;;;;;5033137;28;20099;-66
2024/03/16 00:42:55;;;;;;;8.77;5.15;;;9.50;99.20;;;;;;5030927;28;20061;-66
2024/03/16 00:45:21;;;;;;;10.52;6.30;;;9.50;99.20;;;;;;5036392;28;20127;-67
2024/03/16 00:47:46;;;;;;;10.73;5.93;;;9.50;99.10;;;;;;5040566;28;20029;-66
2024/03/16 00:50:14;;;;;;;12.55;6.57;;;9.50;99.10;;;;;;5034466;28;20035;-66
2024/03/16 00:52:40;;;;;;;10.68;5.68;;;9.50;99.10;;;;;;5038550;28;20029;-66
2024/03/16 00:55:05;;;;;;;11.95;7.00;;;9.50;99.10;;;;;;5038696;28;20031;-66
2024/03/16 00:57:31;;;;;;;9.93;6.00;;;9.60;98.90;;;;;;5032135;28;20125;-66
2024/03/16 00:59:56;;;;;;;12.10;6.95;;;9.60;98.80;;;;;;5033468;28;20083;-65
2024/03/16 01:02:22;;;;;;;11.02;6.50;;;9.60;98.80;;;;;;5038383;28;20444;-66
2024/03/16 01:04:47;;;;;;;10.38;5.55;;;9.60;98.80;;;;;;5045089;28;20028;-66
2024/03/16 01:07:13;;;;;;;11.25;6.30;;;9.60;98.80;;;;;;5038208;28;20111;-66
2024/03/16 01:09:38;;;;;;;11.50;6.43;;;9.60;98.70;;;;;;5037459;28;20422;-66
2024/03/16 01:12:04;;;;;;;10.93;5.97;;;9.60;98.70;;;;;;5034834;28;20071;-67
2024/03/16 01:14:29;;;;;;;10.40;6.57;;;9.70;98.60;;;;;;5039138;28;20044;-66
2024/03/16 01:16:55;;;;;;;11.20;6.85;;;9.70;98.50;;;;;;5041442;28;20127;-66
2024/03/16 01:19:20;;;;;;;10.60;5.63;;;9.70;98.40;;;;;;5038742;28;20542;-66
2024/03/16 01:21:46;;;;;;;10.30;6.30;;;9.70;98.30;;;;;;5040436;28;20047;-66
2024/03/16 01:24:11;;;;;;;14.65;7.10;;;9.70;98.30;;;;;;5037027;28;20425;-66
2024/03/16 01:26:37;;;;;;;11.80;7.18;;;9.70;98.30;;;;;;5040845;28;20049;-65
2024/03/16 01:29:04;;;;;;;14.43;7.57;;;9.60;98.30;;;;;;5030846;28;20021;-66
2024/03/16 01:31:30;;;;;;;12.13;6.55;;;9.60;98.20;;;;;;5036997;28;20126;-66
2024/03/16 01:33:55;;;;;;;14.38;7.60;;;9.60;98.20;;;;;;5034971;28;20490;-66
2024/03/16 01:36:21;;;;;;;13.50;6.70;;;9.60;98.30;;;;;;5035277;28;20036;-65
2024/03/16 01:38:46;;;;;;;11.60;7.18;;;9.60;98.30;;;;;;5032154;28;20041;-66
2024/03/16 01:41:12;;;;;;;14.80;7.22;;;9.60;98.30;;;;;;5037950;28;20033;-66
2024/03/16 01:43:37;;;;;;;12.82;7.53;;;9.60;98.30;;;;;;5034525;28;20053;-66
2024/03/16 01:46:03;;;;;;;13.02;7.25;;;9.70;98.20;;;;;;5032584;28;20038;-66
2024/03/16 01:48:29;;;;;;;12.98;7.57;;;9.60;98.20;;;;;;5032329;28;20035;-66
2024/03/16 01:50:54;;;;;;;11.85;6.72;;;9.70;98.20;;;;;;5036698;28;20053;-66
2024/03/16 01:53:20;;;;;;;13.90;7.40;;;9.70;98.20;;;;;;5032667;28;20056;-66
2024/03/16 01:55:46;;;;;;;15.13;7.95;;;9.70;98.20;;;;;;5026551;28;20062;-66
2024/03/16 01:58:11;;;;;;;11.55;7.05;;;9.60;98.40;;;;;;5027246;28;20121;-67
2024/03/16 02:00:37;;;;;;;11.95;7.28;;;9.60;98.40;;;;;;5033033;28;20107;-66
2024/03/16 02:03:02;;;;;;;12.95;7.13;;;9.60;98.50;;;;;;5036855;28;20048;-66
2024/03/16 02:05:29;;;;;;;13.48;7.63;;;9.60;98.50;;;;;;5032814;28;20103;-66
2024/03/16 02:07:54;;;;;;;13.07;7.78;;;9.60;98.50;;;;;;5029668;28;20056;-66
2024/03/16 02:10:20;;;;;;;11.80;7.80;;;9.60;98.50;;;;;;5029949;28;20033;-66
2024/03/16 02:12:46;;;;;;;12.60;7.43;;;9.60;98.60;;;;;;5036056;28;20169;-66
2024/03/16 02:15:13;;;;;;;12.60;7.47;;;9.50;98.60;;;;;;5037833;28;20163;-66
2024/03/16 02:17:39;;;;;;;11.48;7.47;;;9.60;98.60;;;;;;5034367;28;20116;-67
2024/03/16 02:20:14;;;;;;;11.93;7.15;;;9.60;98.60;;;;;;5034024;28;20143;-66
2024/03/16 02:22:40;;;;;;;14.68;7.70;;;9.60;98.50;;;;;;5035422;28;20075;-66
2024/03/16 02:25:07;;;;;;;14.90;7.93;;;9.60;98.40;;;;;;5027915;28;20673;-67
2024/03/16 02:27:32;;;;;;;16.60;7.63;;;9.70;98.30;;;;;;5031813;28;20128;-66
2024/03/16 02:29:58;;;;;;;15.27;7.85;;;9.70;98.20;;;;;;5029652;28;20536;-66
2024/03/16 02:32:24;;;;;;;12.48;7.05;;;9.70;98.00;;;;;;5033830;28;20029;-66
2024/03/16 02:34:49;;;;;;;12.20;6.70;;;9.70;98.00;;;;;;5030540;28;20049;-66
2024/03/16 02:37:14;;;;;;;13.15;6.10;;;9.70;97.90;;;;;;5035165;28;20059;-66
2024/03/16 02:39:40;;;;;;;12.05;6.35;;;9.70;97.80;;;;;;5036889;28;20076;-65
2024/03/16 02:42:06;;;;;;;12.63;7.57;;;9.70;97.80;;;;;;5030035;28;20110;-65
2024/03/16 02:44:32;;;;;;;10.52;6.55;;;9.70;97.70;;;;;;5035366;28;20123;-65
2024/03/16 02:46:58;;;;;;;11.02;6.05;;;9.80;97.60;;;;;;5038025;28;20113;-65
2024/03/16 02:49:25;;;;;;;11.02;6.53;;;9.80;97.60;;;;;;5042419;28;20574;-64
2024/03/16 02:51:51;;;;;;;10.20;6.38;;;9.80;97.50;;;;;;5031311;28;20029;-65
2024/03/16 02:54:17;;;;;;;8.98;5.50;;;9.80;97.40;;;;;;5033166;28;20033;-64
2024/03/16 02:56:42;;;;;;;14.10;7.15;;;9.80;97.40;;;;;;5033650;28;20037;-65
2024/03/16 02:59:09;;;;;;;12.77;5.82;;;9.80;97.40;;;;;;5035494;28;20436;-64
2024/03/16 03:01:35;;;;;;;13.63;6.45;;;9.80;97.30;;;;;;5038996;28;20037;-64
2024/03/16 03:04:01;;;;;;;10.68;5.60;;;9.80;97.10;;;;;;5028803;28;20350;-66
2024/03/16 03:06:27;;;;;;;9.63;5.75;;;9.80;97.10;;;;;;5035983;28;20033;-65
2024/03/16 03:08:52;;;;;;;13.48;5.38;;;9.80;97.10;;;;;;5029886;28;20044;-65
2024/03/16 03:11:19;;;;;;;7.53;4.25;;;9.80;96.80;;;;;;5029871;28;20049;-65
2024/03/16 03:13:45;;;;;;;9.65;6.15;;;9.80;96.90;;;;;;5034193;28;20025;-65
2024/03/16 03:16:11;;;;;;;10.88;5.13;;;9.80;96.90;;;;;;5032827;28;20175;-65
2024/03/16 03:18:36;;;;;;;13.00;4.93;;;9.80;96.80;;;;;;5031660;28;20033;-64
2024/03/16 03:21:02;;;;;;;7.47;4.57;;;9.80;96.70;;;;;;5030692;28;20039;-64
2024/03/16 03:23:28;;;;;;;8.48;4.50;;;9.80;96.70;;;;;;5032278;28;20201;-65
2024/03/16 03:25:53;;;;;;;9.00;4.63;;;9.80;96.70;;;;;;5031335;28;20311;-64
2024/03/16 03:28:19;;;;;;;8.70;4.63;;;9.80;96.70;;;;;;5032703;28;20397;-64
2024/03/16 03:30:44;;;;;;;9.75;4.45;;;9.80;96.70;;;;;;5034573;28;20041;-65
2024/03/16 03:33:10;;;;;;;7.55;3.97;;;9.80;96.70;;;;;;5031022;28;20120;-64
2024/03/16 03:35:39;;;;;;;8.00;4.20;;;9.70;96.60;;;;;;5027079;28;20037;-64
2024/03/16 03:38:07;;;;;;;8.52;3.92;;;9.80;96.50;;;;;;5038429;28;20052;-65
2024/03/16 03:40:32;;;;;;;9.35;4.43;;;9.70;96.50;;;;;;5027600;28;20440;-65
2024/03/16 03:43:00;;;;;;;6.82;3.55;;;9.70;96.60;;;;;;5032534;28;20073;-65
2024/03/16 03:45:49;;;;;;;13.70;4.13;;;9.80;96.50;;;;;;5034289;28;20026;-65
2024/03/16 03:50:53;;;;;;;7.40;4.05;;;9.70;96.70;;;;;;5031499;28;20045;-64
2024/03/16 03:53:19;;;;;;;7.60;4.20;;;9.70;96.60;;;;;;5031139;28;20069;-65
2024/03/16 03:55:45;;;;;;;6.75;3.72;;;9.70;96.60;;;;;;5036595;28;20406;-65
2024/03/16 03:58:11;;;;;;;6.10;3.42;;;9.70;96.50;;;;;;5038426;28;20044;-65
2024/03/16 04:00:37;;;;;;;8.90;3.17;;;9.70;96.50;;;;;;5044398;28;20408;-64
2024/03/16 04:03:06;;;;;;;10.57;4.25;;;9.70;96.50;;;;;;5030377;28;20048;-65
2024/03/16 04:05:33;;;;;;;8.85;3.95;;;9.70;96.60;;;;;;5029129;28;20041;-64
2024/03/16 04:07:59;;;;;;;7.32;3.40;;;9.70;96.70;;;;;;5039346;28;20043;-64
2024/03/16 04:10:24;;;;;;;7.53;3.20;;;9.60;96.90;;;;;;5036279;28;20041;-64
2024/03/16 04:12:50;;;;;;;7.28;3.28;;;9.60;97.00;;;;;;5036620;28;20037;-64
2024/03/16 04:15:15;;;;;;;6.38;2.97;;;9.60;97.00;;;;;;5031145;28;20093;-64
2024/03/16 04:17:41;;;;;;;5.55;3.13;;;9.60;97.20;;;;;;5036710;28;20064;-65
2024/03/16 04:20:10;;;;;;;7.93;3.78;;;9.60;97.20;;;;;;5036126;28;20122;-65
2024/03/16 04:22:39;;;;;;;8.30;3.55;;;9.60;97.10;;;;;;5043623;28;20075;-64
2024/03/16 04:25:07;;;;;;;7.78;3.60;;;9.60;96.90;;;;;;5029307;28;20336;-64
2024/03/16 04:27:32;;;;;;;7.63;3.05;;;9.60;96.90;;;;;;5039371;28;20033;-64
2024/03/16 04:29:58;;;;;;;11.55;3.55;;;9.60;96.80;;;;;;5033562;28;20029;-64
2024/03/16 04:32:27;;;;;;;8.27;3.10;;;9.60;96.50;;;;;;5043184;28;20022;-64
2024/03/16 04:34:53;;;;;;;5.07;2.53;;;9.70;96.10;;;;;;5037824;28;20025;-65
2024/03/16 04:37:19;;;;;;;8.93;3.17;;;9.70;96.10;;;;;;5036310;28;20158;-64
2024/03/16 04:39:44;;;;;;;5.57;2.67;;;9.70;96.20;;;;;;5028957;28;20116;-65
2024/03/16 04:42:10;;;;;;;9.40;2.85;;;9.60;96.30;;;;;;5031769;28;20050;-65
2024/03/16 04:44:36;;;;;;;5.18;2.28;;;9.60;96.40;;;;;;5031186;28;20432;-64
2024/03/16 04:47:02;;;;;;;5.35;2.25;;;9.60;96.50;;;;;;5039022;28;20063;-65
2024/03/16 04:49:27;;;;;;;7.50;3.03;;;9.60;96.90;;;;;;5041416;28;20115;-64
2024/03/16 04:51:53;;;;;;;7.78;2.70;;;9.50;97.20;;;;;;5031408;28;20057;-64
2024/03/16 04:54:18;;;;;;;4.20;2.33;;;9.40;97.50;;;;;;5030704;28;20041;-64
2024/03/16 04:56:44;;;;;;;3.85;2.08;;;9.40;97.90;;;;;;5031582;28;20381;-64
2024/03/16 04:59:12;;;;;;;4.72;2.80;;;9.30;98.10;;;;;;5035892;28;20041;-64
2024/03/16 05:01:37;;;;;;;3.85;1.80;;;9.30;98.50;;;;;;5037043;28;20445;-64
2024/03/16 05:04:03;;;;;;;6.18;2.85;;;9.20;98.80;;;;;;5033685;28;20038;-65
2024/03/16 05:06:32;;;;;;;7.45;2.70;;;9.20;99.00;;;;;;5041258;28;20118;-64
2024/03/16 05:08:58;;;;;;;5.88;3.15;;;9.10;99.10;;;;;;5031669;28;20402;-64
2024/03/16 05:11:24;;;;;;;5.53;2.40;;;9.10;99.30;;;;;;5042644;28;20048;-64
2024/03/16 05:13:49;;;;;;;10.30;3.30;;;9.10;99.40;;;;;;5039877;28;20146;-63
2024/03/16 05:16:15;;;;;;;6.32;2.70;;;9.10;99.70;;;;;;5030534;28;20048;-63
2024/03/16 05:18:40;;;;;;;8.07;3.03;;;9.10;99.80;;;;;;5038023;28;20072;-64
2024/03/16 05:21:07;;;;;;;7.70;2.75;;;9.00;99.80;;;;;;5037810;28;20033;-64
2024/03/16 05:23:33;;;;;;;8.77;3.63;;;9.00;99.90;;;;;;5034797;28;20041;-64
2024/03/16 05:25:59;;;;;;;7.18;3.22;;;9.00;99.90;;;;;;5030666;28;20037;-64
2024/03/16 05:28:24;;;;;;;8.02;3.05;;;9.00;99.90;;;;;;5032429;28;20025;-63
2024/03/16 05:30:53;;;;;;;5.25;2.78;;;9.00;99.90;;;;;;5034972;28;20048;-63
2024/03/16 05:33:19;;;;;;;7.60;3.20;;;9.00;99.90;;;;;;5039831;28;20029;-63
2024/03/16 05:35:44;;;;;;;7.97;2.78;;;9.00;99.90;;;;;;5035233;28;20385;-64
2024/03/16 05:38:10;;;;;;;5.75;2.60;;;8.90;99.90;;;;;;5042823;28;20338;-64
2024/03/16 05:40:40;;;;;;;6.55;2.78;;;9.00;99.90;;;;;;5036004;28;20470;-64
2024/03/16 05:43:06;;;;;;;5.68;2.80;;;8.90;99.90;;;;;;5043003;28;20048;-63
2024/03/16 05:45:31;;;;;;;6.75;2.70;;;8.90;99.90;;;;;;5035337;28;20033;-64
2024/03/16 05:47:57;;;;;;;6.78;3.08;;;8.90;99.90;;;;;;5040854;28;20037;-63
2024/03/16 05:50:22;;;;;;;4.85;2.65;;;9.00;99.90;;;;;;5032666;28;20068;-64
2024/03/16 05:52:47;;;;;;;7.28;2.85;;;8.90;99.90;;;;;;5031082;28;20069;-64
2024/03/16 05:55:15;;;;;;;3.50;1.95;;;8.90;99.90;;;;;;5027154;28;20041;-65
2024/03/16 05:57:40;;;;;;;2.92;1.70;;;8.70;99.90;;;;;;5034626;28;20043;-63
2024/03/16 06:00:13;;;;;;;2.55;1.23;;;8.40;99.30;;;;;;5036830;28;20466;-63
2024/03/16 06:02:39;;;;;;;3.50;1.40;;;8.20;98.80;;;;;;5034158;28;20036;-64
2024/03/16 06:05:05;;;;;;;2.85;1.20;;;8.20;98.90;;;;;;5034504;28;20033;-63
2024/03/16 06:07:30;;;;;;;3.55;1.67;;;8.10;98.90;;;;;;5031742;28;20043;-65
2024/03/16 06:09:56;;;;;;;2.30;1.35;;;8.10;99.10;;;;;;5033115;28;20037;-64
2024/03/16 06:12:23;;;;;;;2.75;1.45;;;8.00;99.10;;;;;;5034466;28;20127;-63
2024/03/16 06:14:49;;;;;;;3.22;1.15;;;7.90;99.10;;;;;;5041942;28;20128;-63
2024/03/16 06:17:15;;;;;;;2.65;1.75;;;7.80;99.30;;;;;;5046128;28;20434;-64
2024/03/16 06:19:41;;;;;;;3.13;1.40;;;7.90;99.50;;;;;;5040305;28;20453;-65
2024/03/16 06:22:07;;;;;;;4.88;1.77;;;7.80;99.60;;;;;;5039329;28;20061;-63
2024/03/16 06:24:33;;;;;;;4.07;1.30;;;7.80;99.80;;;;;;5032279;28;20029;-63
2024/03/16 06:27:05;;;;;;;2.50;1.30;;;7.80;99.90;;;;;;5030205;28;20048;-64
2024/03/16 06:29:34;;;;;;;2.45;1.13;;;7.70;99.90;;;;;;5037171;28;20033;-64
2024/03/16 06:32:06;;;;;;;2.50;1.20;;;7.60;99.70;;;;;;5031762;28;20029;-65
2024/03/16 06:34:33;;;;;;;2.05;1.05;;;7.60;99.40;;;;;;5029022;28;20051;-65
2024/03/16 06:36:59;;;;;;;2.63;1.42;;;7.60;99.40;;;;;;5038325;28;20097;-63
2024/03/16 06:39:24;;;;;;;1.98;0.88;;;7.60;99.30;;;;;;5033088;28;20096;-64
2024/03/16 06:41:50;;;;;;;1.42;0.90;;;7.50;99.20;;;;;;5034220;28;20135;-63
2024/03/16 06:44:15;;;;;;;1.65;0.80;;;7.50;99.10;;;;;;5031178;28;20025;-63
2024/03/16 06:46:41;;;;;;;2.08;1.00;;;7.50;99.00;;;;;;5034799;28;20037;-65
2024/03/16 06:49:07;;;;;;;1.77;0.82;;;7.40;98.80;;;;;;5032143;28;20033;-64
2024/03/16 06:51:32;;;;;;;3.30;1.08;;;7.40;98.80;;;;;;5027824;28;20029;-64
2024/03/16 06:53:58;;;;;;;1.67;0.88;;;7.40;99.00;;;;;;5033304;28;20036;-63
2024/03/16 06:56:23;;;;;;;1.83;0.82;;;7.30;99.10;;;;;;5032736;28;20094;-63
2024/03/16 06:58:49;;;;;;;1.08;0.65;;;7.30;98.90;;;;;;5032326;28;20124;-64
2024/03/16 07:01:14;;;;;;;2.58;1.02;;;7.30;99.00;;;;;;5029920;28;20037;-63
2024/03/16 07:03:40;;;;;;;1.73;0.88;;;7.20;99.20;;;;;;5029105;28;20155;-63
2024/03/16 07:06:08;;;;;;;1.58;0.93;;;7.20;99.30;;;;;;5031736;28;20059;-64
2024/03/16 07:08:34;;;;;;;1.83;0.90;;;7.10;99.50;;;;;;5036811;28;20513;-63
2024/03/16 07:11:00;;;;;;;1.30;0.73;;;7.10;99.50;;;;;;5037153;28;20036;-64
2024/03/16 07:13:25;;;;;;;0.90;0.63;;;7.00;99.60;;;;;;5034190;28;20040;-63
2024/03/16 07:15:51;;;;;;;1.48;0.57;;;6.90;99.50;;;;;;5031529;28;20037;-64
2024/03/16 07:18:17;;;;;;;0.63;0.45;;;6.60;99.30;;;;;;5032705;28;20450;-64
2024/03/16 07:20:43;;;;;;;0.40;0.40;;;6.60;99.50;;;;;;5031644;28;20095;-64
2024/03/16 07:23:08;;;;;;;1.58;0.52;;;6.50;99.60;;;;;;5037945;28;20074;-65
2024/03/16 07:25:34;;;;;;;2.13;0.50;;;6.40;99.60;;;;;;5039152;28;20037;-64
2024/03/16 07:28:00;;;;;;;1.17;0.77;;;6.30;99.50;;;;;;5037653;28;20060;-64
2024/03/16 07:30:25;;;;;;;1.40;0.65;;;6.20;99.40;;;;;;5039249;28;20025;-63
2024/03/16 07:32:51;;;;;;;5.35;1.00;;;6.20;99.10;;;;;;5035010;28;20037;-64
2024/03/16 07:35:17;;;;;;;1.17;0.65;;;6.20;98.90;;;;;;5036200;28;20204;-64
2024/03/16 07:37:42;;;;;;;1.23;0.70;;;6.10;98.60;;;;;;5039798;28;20053;-63
2024/03/16 07:40:15;;;;;;;1.65;0.85;;;6.10;98.70;;;;;;5033179;28;20041;-64
2024/03/16 07:42:44;;;;;;;0.40;0.40;;;6.10;98.80;;;;;;5040693;28;20041;-64
2024/03/16 07:45:09;;;;;;;0.90;0.55;;;6.10;98.70;;;;;;5036787;28;20036;-63
2024/03/16 07:47:35;;;;;;;3.67;0.88;;;6.20;98.90;;;;;;5047109;28;20379;-64
2024/03/16 07:50:03;;;;;;;4.13;0.85;;;6.20;98.90;;;;;;5035746;28;20033;-64
2024/03/16 07:52:28;;;;;;;2.58;1.15;;;6.20;98.60;;;;;;5037250;28;20079;-64
2024/03/16 07:54:54;;;;;;;1.45;0.80;;;6.20;98.80;;;;;;5039127;28;20430;-63
2024/03/16 07:57:19;;;;;;;2.67;0.90;;;6.20;98.90;;;;;;5039969;28;20084;-64
2024/03/16 07:59:45;;;;;;;3.47;1.00;;;6.20;98.70;;;;;;5044102;28;20045;-63
2024/03/16 08:02:10;;;;;;;1.15;0.70;;;6.10;98.80;;;;;;5039299;28;20498;-64
2024/03/16 08:04:36;;;;;;;2.72;0.70;;;6.10;98.60;;;;;;5044511;28;20105;-63
2024/03/16 08:07:02;;;;;;;1.38;0.80;;;6.10;98.20;;;;;;5035783;28;20029;-65
2024/03/16 08:09:28;;;;;;;2.05;0.95;;;6.10;98.20;;;;;;5034093;28;20146;-64
2024/03/16 08:11:54;;;;;;;2.55;0.95;;;6.10;98.30;;;;;;5039334;28;20235;-63
2024/03/16 08:14:20;;;;;;;4.55;1.15;;;6.10;98.00;;;;;;5038396;28;20219;-63
2024/03/16 08:16:46;;;;;;;1.25;0.82;;;6.10;97.60;;;;;;5035104;28;20096;-63
2024/03/16 08:19:14;;;;;;;3.35;1.30;;;6.00;97.60;;;;;;5035648;28;20089;-64
2024/03/16 08:21:40;;;;;;;2.47;1.10;;;6.10;97.90;;;;;;5036783;28;20551;-63
2024/03/16 08:24:05;;;;;;;4.35;1.15;;;6.00;97.90;;;;;;5041731;28;20077;-65
2024/03/16 08:26:31;;;;;;;5.63;1.15;;;5.90;97.40;;;;;;5042297;28;20068;-64
2024/03/16 08:28:57;;;;;;;4.72;2.08;;;6.00;97.10;;;;;;5037369;28;20040;-63
2024/03/16 08:31:22;;;;;;;2.70;1.40;;;6.10;97.10;;;;;;5034701;28;20070;-63
2024/03/16 08:33:48;;;;;;;5.15;1.33;;;6.10;96.10;;;;;;5037530;28;20041;-63
2024/03/16 08:36:14;;;;;;;2.08;0.70;;;6.10;95.50;;;;;;5049568;28;20033;-63
2024/03/16 08:38:40;;;;;;;4.25;0.93;;;6.00;95.20;;;;;;5031021;28;20120;-64
2024/03/16 08:41:06;;;;;;;4.25;0.88;;;6.00;94.80;;;;;;5034928;28;20116;-63
2024/03/16 08:43:31;;;;;;;1.85;0.90;;;6.00;95.00;;;;;;5035201;28;20080;-65
2024/03/16 08:46:00;;;;;;;1.02;0.40;;;5.90;94.10;;;;;;5042336;28;20516;-63
2024/03/16 08:48:25;;;;;;;1.23;0.82;;;6.00;95.00;;;;;;5033944;28;20033;-64
2024/03/16 08:50:51;;;;;;;3.30;0.80;;;6.00;94.90;;;;;;5042702;28;20132;-64
2024/03/16 08:53:16;;;;;;;5.35;0.88;;;6.00;94.50;;;;;;5030067;28;20037;-64
2024/03/16 08:55:42;;;;;;;0.93;0.47;;;6.10;94.20;;;;;;5025652;28;20038;-64
2024/03/16 08:58:07;;;;;;;1.88;0.50;;;6.20;93.90;;;;;;5032290;28;20028;-64
2024/03/16 09:00:33;;;;;;;0.95;0.60;;;6.20;92.70;;;;;;5031809;28;20077;-64
2024/03/16 09:03:00;;;;;;;1.10;0.47;;;6.30;92.80;;;;;;5041766;28;20029;-64
2024/03/16 09:05:26;;;;;;;3.13;1.00;;;6.30;92.70;;;;;;5029809;28;20033;-64
2024/03/16 09:07:51;;;;;;;2.95;0.75;;;6.30;92.50;;;;;;5032457;28;20032;-64
2024/03/16 09:10:17;;;;;;;1.65;0.88;;;6.30;93.00;;;;;;5030666;28;20048;-64
2024/03/16 09:12:43;;;;;;;3.88;0.50;;;6.30;92.60;;;;;;5031180;28;20044;-63
2024/03/16 09:15:08;;;;;;;1.10;0.40;;;6.30;92.10;;;;;;5035701;28;20246;-63
2024/03/16 09:17:34;;;;;;;1.15;0.60;;;6.30;92.00;;;;;;5034084;28;20083;-63
2024/03/16 09:20:10;;;;;;;0.55;0.40;;;6.30;92.70;;;;;;5033721;28;20144;-63
2024/03/16 09:22:38;;;;;;;4.47;0.90;;;6.30;92.10;;;;;;5034360;28;20021;-63
2024/03/16 09:25:05;;;;;;;0.73;0.45;;;6.30;92.00;;;;;;5030377;28;20045;-63
2024/03/16 09:27:34;;;;;;;4.18;0.85;;;6.20;91.70;;;;;;5028652;28;20045;-64
2024/03/16 09:30:01;;;;;;;0.68;0.43;;;6.20;91.40;;;;;;5027632;28;20037;-64
2024/03/16 09:32:26;;;;;;;0.82;0.40;;;6.30;91.70;;;;;;5037646;28;20021;-64
2024/03/16 09:34:52;;;;;;;2.60;0.57;;;6.30;91.30;;;;;;5033292;28;20118;-64
2024/03/16 09:37:18;;;;;;;2.90;0.70;;;6.40;90.90;;;;;;5031405;28;20024;-63
2024/03/16 09:39:43;;;;;;;1.88;1.00;;;6.40;89.80;;;;;;5035538;28;20107;-63
2024/03/16 09:42:09;;;;;;;1.50;0.70;;;6.60;90.20;;;;;;5033447;28;20126;-63
2024/03/16 09:44:35;;;;;;;2.20;0.77;;;6.60;89.90;;;;;;5031842;28;20037;-63
2024/03/16 09:47:03;;;;;;;1.55;0.63;;;6.60;89.90;;;;;;5038218;28;20056;-64
2024/03/16 09:49:30;;;;;;;2.53;0.60;;;6.60;90.60;;;;;;5028520;28;20647;-64
2024/03/16 09:51:59;;;;;;;0.30;0.30;;;6.50;90.40;;;;;;5034427;28;20040;-63
2024/03/16 09:54:28;;;;;;;1.70;0.60;;;6.40;90.10;;;;;;5031649;28;20442;-66
2024/03/16 09:56:53;;;;;;;1.48;0.60;;;6.40;90.80;;;;;;5036396;28;20407;-65
2024/03/16 09:59:20;;;;;;;2.95;0.50;;;6.60;91.70;;;;;;5035830;28;20122;-65
2024/03/16 10:01:47;;;;;;;1.17;0.50;;;6.80;91.10;;;;;;5036694;28;20040;-66
2024/03/16 10:04:13;;;;;;;1.13;0.57;;;6.80;89.60;;;;;;5029698;28;20441;-65
2024/03/16 10:06:39;;;;;;;2.13;0.63;;;7.10;89.70;;;;;;5030073;28;20089;-65
2024/03/16 10:09:12;;;;;;;3.20;0.65;;;7.20;88.50;;;;;;5027755;28;20033;-67
2024/03/16 10:11:39;;;;;;;3.70;0.73;;;7.50;88.50;;;;;;5032402;28;20037;-64
2024/03/16 10:14:07;;;;;;;1.98;0.52;;;7.40;86.60;;;;;;5034071;28;20488;-66
2024/03/16 10:16:33;;;;;;;3.40;0.88;;;7.70;87.60;;;;;;5029576;28;20051;-65
2024/03/16 10:18:59;;;;;;;1.10;0.57;;;7.80;87.00;;;;;;5025956;28;20365;-65
2024/03/16 10:21:28;;;;;;;1.48;0.60;;;7.80;85.20;;;;;;5037925;28;20026;-68
2024/03/16 10:23:57;;;;;;;0.73;0.50;;;8.00;85.20;;;;;;5032307;28;20021;-66
2024/03/16 10:26:23;;;;;;;2.97;0.68;;;7.90;84.40;;;;;;5032466;28;20504;-66
2024/03/16 10:28:50;;;;;;;0.85;0.40;;;7.90;84.00;;;;;;5042421;28;20043;-67
2024/03/16 10:31:16;;;;;;;0.55;0.25;;;7.60;83.50;;;;;;5033748;28;20400;-65
2024/03/16 10:33:43;;;;;;;1.58;0.63;;;7.40;83.30;;;;;;5031924;28;20064;-63
2024/03/16 10:36:17;;;;;;;2.83;0.57;;;7.30;85.10;;;;;;5031682;28;20044;-65
2024/03/16 10:38:43;;;;;;;1.75;1.05;;;7.30;85.20;;;;;;5028558;28;20048;-62
2024/03/16 10:41:11;;;;;;;3.67;0.70;;;7.30;86.00;;;;;;5024597;28;20131;-64
2024/03/16 10:43:38;;;;;;;3.13;0.45;;;7.20;85.40;;;;;;5037042;28;20446;-63
2024/03/16 10:46:09;;;;;;;0.95;0.32;;;7.20;85.20;;;;;;5032397;28;20025;-62
2024/03/16 10:48:35;;;;;;;;;;;7.30;85.90;;;;;;5035567;28;20105;-62
2024/03/16 10:51:01;;;;;;;0.30;0.28;;;7.10;86.10;;;;;;5028154;28;19931;-63
2024/03/16 10:53:27;;;;;;;0.35;0.30;;;7.00;86.20;;;;;;5041696;28;20033;-62
2024/03/16 10:55:53;;;;;;;1.10;0.63;;;7.00;87.20;;;;;;5027841;28;20097;-62
2024/03/16 10:58:25;;;;;;;3.78;0.70;;;6.90;86.70;;;;;;5041436;28;20075;-62
2024/03/16 11:00:58;;;;;;;0.43;0.40;;;6.90;87.30;;;;;;5041952;28;20025;-63
2024/03/16 11:03:30;;;;;;;1.98;0.88;;;7.00;87.20;;;;;;5027807;28;20030;-62
2024/03/16 11:06:01;;;;;;;2.92;0.70;;;7.00;86.00;;;;;;5026978;28;20056;-62
2024/03/16 11:08:44;;;;;;;0.82;0.38;;;7.10;86.60;;;;;;5028694;28;20053;-63
2024/03/16 11:11:14;;;;;;;0.63;0.40;;;7.10;85.30;;;;;;5032616;28;20101;-63
2024/03/16 11:14:03;;;;;;;0.75;0.40;;;7.40;85.80;;;;;;5032657;28;20101;-63
2024/03/16 11:16:30;;;;;;;0.88;0.35;;;7.60;85.80;;;;;;5036657;28;20346;-63
2024/03/16 11:18:58;;;;;;;1.45;0.60;;;7.80;85.60;;;;;;5034826;28;20053;-62
2024/03/16 11:21:26;;;;;;;0.10;0.10;;;8.00;84.50;;;;;;5038387;28;20060;-63
2024/03/16 11:23:51;;;;;;;2.13;0.38;;;8.30;84.50;;;;;;5029818;28;20025;-65
2024/03/16 11:26:26;;;;;;;0.73;0.40;;;8.10;84.80;;;;;;5022967;28;20056;-64
2024/03/16 11:29:14;;;;;;;1.05;0.50;;;8.00;84.60;;;;;;5038378;28;20087;-64
2024/03/16 11:31:40;;;;;;;1.02;0.57;;;8.10;83.30;;;;;;5033661;28;20111;-64
2024/03/16 11:34:13;;;;;;;5.63;0.60;;;8.90;83.60;;;;;;5030409;28;20362;-65
2024/03/16 11:36:49;;;;;;;2.33;0.57;;;9.30;80.70;;;;;;5031598;28;20091;-65
2024/03/16 11:39:24;;;;;;;2.38;0.60;;;9.60;79.80;;;;;;5027327;28;20098;-65
2024/03/16 11:41:50;;;;;;;0.88;0.30;;;9.60;75.90;;;;;;5031907;28;20052;-65
2024/03/16 11:44:16;;;;;;;1.38;0.35;;;9.80;75.30;;;;;;5030695;28;20052;-65
2024/03/16 11:46:44;;;;;;;4.30;0.50;;;9.80;73.10;;;;;;5033875;28;20104;-71
2024/03/16 11:49:16;;;;;;;0.85;0.35;;;10.00;72.00;;;;;;5025591;28;20112;-65
2024/03/16 11:51:44;;;;;;;1.25;0.50;;;10.60;70.00;;;;;;5027271;28;20116;-65
2024/03/16 11:54:12;;;;;;;1.55;0.60;;;10.40;67.70;;;;;;5028866;28;20041;-67
2024/03/16 11:56:39;;;;;;;1.65;0.60;;;9.90;69.70;;;;;;5036543;28;20117;-65
2024/03/16 11:59:05;;;;;;;2.47;0.40;;;10.00;66.60;;;;;;5036384;28;20037;-65
2024/03/16 12:01:33;;;;;;;1.67;0.55;;;9.50;67.70;;;;;;5038697;28;20550;-66
2024/03/16 12:03:59;;;;;;;1.55;0.82;;;9.10;68.20;;;;;;5033681;28;20040;-65
2024/03/16 12:06:26;;;;;;;3.13;0.95;;;9.30;69.20;;;;;;5029543;28;20392;-64
2024/03/16 12:08:52;;;;;;;2.30;0.30;;;10.20;69.30;;;;;;5030372;28;20119;-64
2024/03/16 12:11:18;;;;;;;1.00;0.32;;;9.90;68.70;;;;;;5035294;28;20108;-64
2024/03/16 12:13:44;;;;;;;1.02;0.70;;;10.40;68.80;;;;;;5035434;28;20021;-64
2024/03/16 12:16:10;;;;;;;3.78;0.60;;;10.30;67.40;;;;;;5030666;28;20124;-64
2024/03/16 12:18:36;;;;;;;1.05;0.30;;;10.80;68.20;;;;;;5035646;28;20120;-65
2024/03/16 12:21:04;;;;;;;1.30;0.45;;;11.10;67.10;;;;;;5037773;28;20330;-65
2024/03/16 12:23:30;;;;;;;2.47;0.60;;;11.00;66.50;;;;;;5037446;28;20120;-63
2024/03/16 12:25:59;;;;;;;1.95;0.43;;;10.60;63.80;;;;;;5034695;28;20127;-63
2024/03/16 12:28:25;;;;;;;3.85;0.50;;;10.90;64.30;;;;;;5042881;28;20045;-64
2024/03/16 12:30:51;;;;;;;3.20;0.63;;;10.10;66.00;;;;;;5034068;28;20111;-64
2024/03/16 12:33:17;;;;;;;3.25;0.57;;;9.50;67.20;;;;;;5030034;28;20034;-63
2024/03/16 12:35:43;;;;;;;1.45;0.40;;;9.20;68.20;;;;;;5031850;28;20428;-64
2024/03/16 12:38:10;;;;;;;2.03;0.65;;;10.10;68.80;;;;;;5040432;28;20472;-65
2024/03/16 12:40:36;;;;;;;2.95;0.68;;;10.60;67.70;;;;;;5031141;28;20021;-64
2024/03/16 12:43:02;;;;;;;3.05;0.80;;;10.20;67.10;;;;;;5037756;28;20049;-64
2024/03/16 12:45:27;;;;;;;1.85;0.65;;;9.70;68.80;;;;;;5037525;28;20091;-64
2024/03/16 12:47:52;;;;;;;2.25;0.43;;;9.70;69.10;;;;;;5032235;28;20100;-64
2024/03/16 12:50:18;;;;;;;1.65;0.70;;;9.80;68.00;;;;;;5035665;28;20057;-63
2024/03/16 12:52:44;;;;;;;4.78;0.82;;;10.40;69.10;;;;;;5036016;28;20044;-65
2024/03/16 12:55:11;;;;;;;2.17;0.60;;;10.40;65.20;;;;;;5032828;28;20033;-64